createdAt,value
2019-03-08T00:01:59.041Z,71.78
2019-03-08T00:04:30.983Z,72.89
2019-03-08T00:07:02.832Z,71.88
2019-03-08T00:09:35.048Z,71.89
2019-03-08T00:12:07.246Z,71.89
2019-03-08T00:14:38.794Z,71.90
2019-03-08T00:17:10.312Z,71.92
2019-03-08T00:19:41.740Z,72.00
2019-03-08T00:22:13.575Z,72.00
2019-03-08T00:24:45.305Z,72.32
2019-03-08T00:27:16.754Z,72.41
2019-03-08T00:29:48.489Z,72.08
2019-03-08T00:32:19.968Z,72.08
2019-03-08T00:34:51.499Z,72.14
2019-03-08T00:37:23.491Z,72.07
2019-03-08T00:39:55.315Z,72.03
2019-03-08T00:42:27.029Z,71.93
2019-03-08T00:44:58.648Z,71.93
2019-03-08T00:47:30.221Z,71.92
2019-03-08T00:50:01.882Z,72.13
2019-03-08T00:52:33.697Z,72.36
2019-03-08T00:55:05.451Z,72.74
2019-03-08T00:57:37.104Z,72.74
2019-03-08T01:00:12.945Z,73.18
2019-03-08T01:02:44.470Z,72.31
2019-03-08T01:05:17.248Z,72.31
2019-03-08T01:07:49.707Z,73.21
2019-03-08T01:10:21.948Z,73.20
2019-03-08T01:12:53.853Z,72.88
2019-03-08T01:15:25.590Z,73.26
2019-03-08T01:17:57.535Z,73.65
2019-03-08T01:20:31.100Z,73.70
2019-03-08T01:23:03.043Z,73.72
2019-03-08T01:25:34.694Z,73.71
2019-03-08T01:28:08.929Z,73.28
2019-03-08T01:30:41.435Z,73.28
2019-03-08T01:33:13.743Z,74.08
2019-03-08T01:35:45.191Z,73.12
2019-03-08T01:38:16.735Z,73.81
2019-03-08T01:40:48.387Z,74.24
2019-03-08T01:43:20.852Z,70.63
2019-03-08T01:45:53.747Z,70.63
2019-03-08T01:48:25.772Z,63.60
2019-03-08T01:50:57.550Z,63.38
2019-03-08T01:53:29.482Z,63.34
2019-03-08T01:56:01.421Z,62.98
2019-03-08T01:58:33.233Z,63.71
2019-03-08T02:01:05.086Z,63.80
2019-03-08T02:03:36.652Z,65.10
2019-03-08T02:06:08.284Z,65.10
2019-03-08T02:08:40.239Z,65.18
2019-03-08T02:11:13.041Z,64.95
2019-03-08T02:13:44.835Z,63.67
2019-03-08T02:16:16.621Z,63.67
2019-03-08T02:18:48.256Z,64.33
2019-03-08T02:21:20.404Z,64.33
2019-03-08T02:23:52.194Z,63.36
2019-03-08T02:26:24.197Z,63.01
2019-03-08T02:28:56.119Z,63.11
2019-03-08T02:31:27.996Z,63.11
2019-03-08T02:33:59.641Z,61.72
2019-03-08T02:36:31.425Z,62.19
2019-03-08T02:39:04.785Z,61.74
2019-03-08T02:41:38.177Z,61.74
2019-03-08T02:44:10.573Z,61.78
2019-03-08T02:46:42.501Z,59.98
2019-03-08T02:49:15.368Z,59.98
2019-03-08T02:51:47.029Z,59.79
2019-03-08T02:54:18.752Z,60.14
2019-03-08T02:56:50.149Z,60.02
2019-03-08T02:59:22.219Z,59.23
2019-03-08T03:01:54.402Z,58.90
2019-03-08T03:04:25.998Z,58.84
2019-03-08T03:06:57.932Z,58.84
2019-03-08T03:09:29.721Z,59.45
2019-03-08T03:12:01.211Z,59.45
2019-03-08T03:14:32.820Z,59.15
2019-03-08T03:17:04.820Z,59.15
2019-03-08T03:19:37.755Z,58.79
2019-03-08T03:22:09.788Z,58.79
2019-03-08T03:24:43.158Z,58.16
2019-03-08T03:27:16.476Z,57.60
2019-03-08T03:29:49.297Z,57.60
2019-03-08T03:32:21.128Z,57.61
2019-03-08T03:34:52.946Z,57.62
2019-03-08T03:37:24.520Z,57.62
2019-03-08T03:39:56.345Z,56.07
2019-03-08T03:42:27.948Z,56.07
2019-03-08T03:44:59.542Z,53.81
2019-03-08T03:47:32.230Z,53.81
2019-03-08T03:50:04.058Z,53.98
2019-03-08T03:52:38.059Z,54.87
2019-03-08T03:55:10.085Z,52.65
2019-03-08T03:57:42.039Z,52.32
2019-03-08T04:00:15.117Z,52.32
2019-03-08T04:02:47.092Z,52.88
2019-03-08T04:05:18.562Z,52.88
2019-03-08T04:07:50.122Z,53.33
2019-03-08T04:10:21.709Z,52.81
2019-03-08T04:12:54.749Z,52.81
2019-03-08T04:15:26.315Z,53.35
2019-03-08T04:17:58.069Z,53.35
2019-03-08T04:20:29.831Z,53.62
2019-03-08T04:23:01.723Z,53.38
2019-03-08T04:25:33.547Z,53.64
2019-03-08T04:28:05.618Z,53.64
2019-03-08T04:30:37.069Z,53.32
2019-03-08T04:33:09.228Z,51.75
2019-03-08T04:35:41.060Z,52.00
2019-03-08T04:38:12.933Z,51.71
2019-03-08T04:40:44.552Z,51.71
2019-03-08T04:43:16.232Z,53.47
2019-03-08T04:45:47.989Z,52.75
2019-03-08T04:48:19.923Z,52.75
2019-03-08T04:50:51.625Z,52.44
2019-03-08T04:53:23.380Z,52.89
2019-03-08T04:55:54.752Z,52.89
2019-03-08T04:58:26.146Z,53.51
2019-03-08T05:00:57.855Z,53.51
2019-03-08T05:03:30.206Z,50.14
2019-03-08T05:06:03.114Z,50.25
2019-03-08T05:08:34.764Z,50.25
2019-03-08T05:11:06.079Z,48.86
2019-03-08T05:13:37.423Z,48.89
2019-03-08T05:16:09.502Z,50.01
2019-03-08T05:18:41.204Z,49.94
2019-03-08T05:21:12.760Z,49.62
2019-03-08T05:23:44.624Z,49.23
2019-03-08T05:26:17.045Z,49.23
2019-03-08T05:28:49.143Z,52.53
2019-03-08T05:31:21.983Z,51.18
2019-03-08T05:33:55.507Z,50.53
2019-03-08T05:36:28.985Z,51.37
2019-03-08T05:39:03.439Z,51.37
2019-03-08T05:41:39.438Z,50.49
2019-03-08T05:44:13.598Z,48.04
2019-03-08T05:46:46.390Z,48.04
2019-03-08T05:49:20.763Z,48.01
2019-03-08T05:51:53.934Z,48.01
2019-03-08T05:54:27.144Z,46.57
2019-03-08T05:57:00.126Z,46.57
2019-03-08T05:59:36.788Z,47.82
2019-03-08T06:02:08.533Z,47.42
2019-03-08T06:04:40.942Z,47.79
2019-03-08T06:07:13.391Z,47.79
2019-03-08T06:09:45.060Z,47.36
2019-03-08T06:12:16.683Z,48.41
2019-03-08T06:14:48.560Z,48.41
2019-03-08T06:17:20.058Z,45.93
2019-03-08T06:19:51.704Z,45.93
2019-03-08T06:22:23.139Z,46.01
2019-03-08T06:24:55.217Z,46.01
2019-03-08T06:27:26.873Z,46.04
2019-03-08T06:29:58.696Z,46.47
2019-03-08T06:32:30.156Z,46.47
2019-03-08T06:35:01.819Z,47.39
2019-03-08T06:37:33.933Z,45.51
2019-03-08T06:40:05.680Z,45.51
2019-03-08T06:42:37.850Z,45.45
2019-03-08T06:45:10.987Z,45.45
2019-03-08T06:47:42.901Z,43.63
2019-03-08T06:50:15.232Z,43.49
2019-03-08T06:52:47.066Z,45.66
2019-03-08T06:55:18.824Z,45.66
2019-03-08T06:58:00.156Z,44.04
2019-03-08T07:00:53.990Z,44.53
2019-03-08T07:03:25.504Z,44.53
2019-03-08T07:05:57.072Z,44.01
2019-03-08T07:08:28.702Z,43.43
2019-03-08T07:11:00.461Z,42.18
2019-03-08T07:13:32.416Z,44.51
2019-03-08T07:16:12.516Z,43.37
2019-03-08T07:18:37.743Z,42.32
2019-03-08T07:21:18.028Z,40.67
2019-03-08T07:24:11.232Z,41.32
2019-03-08T07:27:07.541Z,41.32
2019-03-08T07:29:56.516Z,42.53
2019-03-08T07:32:37.469Z,39.94
2019-03-08T07:35:34.271Z,38.04
2019-03-08T07:38:30.893Z,35.15
2019-03-08T07:41:23.661Z,35.15
2019-03-08T07:44:32.344Z,34.80
2019-03-08T07:47:31.458Z,35.27
2019-03-08T07:50:29.264Z,35.27
2019-03-08T07:53:09.745Z,37.52
2019-03-08T07:55:48.882Z,31.47
2019-03-08T07:58:38.423Z,31.27
2019-03-08T08:01:40.974Z,32.12
2019-03-08T08:04:27.199Z,32.12
2019-03-08T08:07:11.303Z,33.36
2019-03-08T08:09:50.284Z,33.36
2019-03-08T08:12:31.611Z,34.17
2019-03-08T08:15:20.627Z,32.46
2019-03-08T08:18:00.239Z,29.71
2019-03-08T08:20:53.607Z,28.13
2019-03-08T08:23:35.035Z,28.34
2019-03-08T08:26:26.073Z,32.13
2019-03-08T08:29:08.839Z,32.13
2019-03-08T08:31:58.729Z,33.06
2019-03-08T08:34:48.607Z,33.06
2019-03-08T08:37:36.063Z,33.12
2019-03-08T08:40:27.189Z,33.40
2019-03-08T08:43:06.185Z,33.40
2019-03-08T08:46:14.725Z,30.20
2019-03-08T08:49:03.905Z,32.36
2019-03-08T08:51:45.046Z,32.36
2019-03-08T08:54:45.212Z,31.17
2019-03-08T08:57:29.199Z,31.92
2019-03-08T09:00:21.765Z,29.78
2019-03-08T09:03:18.538Z,33.44
2019-03-08T09:06:11.998Z,33.44
2019-03-08T09:08:51.804Z,30.09
2019-03-08T09:11:54.409Z,30.09
2019-03-08T09:14:48.186Z,28.88
2019-03-08T09:17:28.595Z,35.00
2019-03-08T09:20:10.648Z,35.00
2019-03-08T09:22:50.779Z,32.53
2019-03-08T09:25:34.163Z,29.79
2019-03-08T09:28:33.465Z,29.79
2019-03-08T09:31:18.135Z,31.40
2019-03-08T09:34:01.021Z,32.00
2019-03-08T09:37:06.488Z,32.00
2019-03-08T09:39:55.330Z,31.43
2019-03-08T09:43:05.074Z,32.11
2019-03-08T09:45:55.977Z,32.34
2019-03-08T09:48:49.599Z,32.55
2019-03-08T09:51:33.214Z,31.83
2019-03-08T09:54:18.158Z,31.56
2019-03-08T09:57:10.159Z,31.46
2019-03-08T09:59:54.677Z,31.46
2019-03-08T10:02:45.232Z,31.46
2019-03-08T10:05:36.031Z,31.86
2019-03-08T10:08:32.582Z,30.11
2019-03-08T10:11:16.392Z,30.11
2019-03-08T10:14:13.966Z,29.56
2019-03-08T10:17:02.648Z,29.97
2019-03-08T10:20:02.653Z,29.98
2019-03-08T10:22:52.090Z,29.63
2019-03-08T10:25:41.311Z,29.63
2019-03-08T10:28:30.968Z,29.73
2019-03-08T10:31:22.755Z,30.72
2019-03-08T10:34:19.124Z,29.77
2019-03-08T10:37:04.154Z,29.85
2019-03-08T10:39:54.504Z,30.73
2019-03-08T10:42:48.260Z,30.10
2019-03-08T10:45:37.355Z,30.06
2019-03-08T10:48:25.453Z,30.08
2019-03-08T10:51:11.476Z,29.51
2019-03-08T10:54:01.018Z,30.17
2019-03-08T10:57:00.972Z,31.56
2019-03-08T11:00:00.657Z,30.62
2019-03-08T11:02:48.293Z,30.77
2019-03-08T11:05:30.831Z,30.77
2019-03-08T11:08:10.252Z,30.75
2019-03-08T11:11:06.462Z,31.99
2019-03-08T11:14:00.140Z,31.05
2019-03-08T11:16:49.202Z,31.30
2019-03-08T11:19:39.496Z,31.87
2019-03-08T11:22:30.185Z,31.87
2019-03-08T11:25:20.687Z,31.00
2019-03-08T11:28:21.055Z,31.00
2019-03-08T11:31:11.861Z,30.80
2019-03-08T11:34:06.276Z,30.69
2019-03-08T11:36:42.513Z,31.15
2019-03-08T11:39:57.971Z,31.05
2019-03-08T11:43:07.252Z,31.05
2019-03-08T11:46:03.890Z,31.19
2019-03-08T11:48:59.959Z,31.36
2019-03-08T11:51:51.126Z,30.62
2019-03-08T11:55:01.332Z,30.99
2019-03-08T11:57:52.353Z,31.88
2019-03-08T12:00:43.761Z,31.88
2019-03-08T12:03:43.904Z,32.25
2019-03-08T12:06:36.088Z,32.25
2019-03-08T12:09:26.348Z,32.50
2019-03-08T12:12:08.275Z,33.47
2019-03-08T12:15:14.773Z,33.50
2019-03-08T12:18:08.152Z,33.50
2019-03-08T12:20:49.420Z,34.67
2019-03-08T12:23:30.005Z,34.67
2019-03-08T12:26:21.405Z,35.29
2019-03-08T12:29:14.925Z,36.05
2019-03-08T12:32:14.385Z,36.93
2019-03-08T12:35:03.760Z,38.30
2019-03-08T12:37:49.595Z,38.30
2019-03-08T12:40:42.001Z,38.93
2019-03-08T12:43:48.149Z,39.44
2019-03-08T12:46:45.082Z,40.03
2019-03-08T12:49:41.732Z,40.12
2019-03-08T12:52:31.063Z,40.56
2019-03-08T12:55:37.373Z,41.20
2019-03-08T12:58:34.306Z,40.94
2019-03-08T13:01:28.755Z,41.77
2019-03-08T13:04:28.883Z,42.06
2019-03-08T13:07:09.383Z,41.95
2019-03-08T13:09:49.930Z,41.95
2019-03-08T13:12:21.993Z,42.09
2019-03-08T13:14:54.723Z,42.07
2019-03-08T13:17:26.715Z,42.07
2019-03-08T13:19:58.512Z,41.79
2019-03-08T13:22:30.485Z,42.47
2019-03-08T13:25:02.319Z,41.95
2019-03-08T13:27:34.454Z,42.24
2019-03-08T13:30:07.162Z,42.24
2019-03-08T13:32:38.942Z,41.94
2019-03-08T13:35:11.524Z,43.03
2019-03-08T13:37:43.310Z,42.36
2019-03-08T13:40:15.601Z,42.36
2019-03-08T13:42:47.816Z,42.70
2019-03-08T13:45:19.871Z,42.70
2019-03-08T13:47:51.639Z,42.72
2019-03-08T13:50:23.700Z,44.29
2019-03-08T13:52:55.645Z,44.29
2019-03-08T13:55:29.323Z,44.56
2019-03-08T13:58:01.220Z,44.56
2019-03-08T14:00:33.154Z,44.80
2019-03-08T14:03:05.761Z,44.67
2019-03-08T14:05:37.865Z,44.01
2019-03-08T14:08:09.823Z,44.01
2019-03-08T14:10:41.825Z,44.61
2019-03-08T14:13:13.501Z,44.61
2019-03-08T14:15:45.183Z,44.75
2019-03-08T14:18:16.572Z,44.59
2019-03-08T14:20:48.297Z,44.48
2019-03-08T14:23:19.818Z,44.48
2019-03-08T14:25:51.408Z,43.88
2019-03-08T14:28:23.197Z,43.87
2019-03-08T14:31:03.374Z,43.87
2019-03-08T14:33:38.175Z,43.84
2019-03-08T14:36:08.445Z,43.54
2019-03-08T14:38:40.065Z,43.30
2019-03-08T14:41:24.913Z,43.30
2019-03-08T14:44:13.738Z,43.09
2019-03-08T14:47:00.421Z,43.45
2019-03-08T14:49:32.204Z,43.55
2019-03-08T14:52:04.273Z,44.00
2019-03-08T14:54:36.284Z,44.19
2019-03-08T14:57:09.221Z,44.19
2019-03-08T14:59:41.728Z,44.19
2019-03-08T15:02:14.603Z,44.19
2019-03-08T15:04:46.323Z,44.48
2019-03-08T15:07:18.204Z,44.39
2019-03-08T15:09:50.158Z,43.48
2019-03-08T15:12:22.359Z,43.48
2019-03-08T15:14:54.380Z,43.83
2019-03-08T15:17:26.284Z,44.49
2019-03-08T15:19:58.101Z,43.55
2019-03-08T15:22:40.203Z,43.87
2019-03-08T15:25:14.104Z,43.87
2019-03-08T15:27:46.284Z,44.02
2019-03-08T15:30:18.386Z,43.34
2019-03-08T15:32:50.070Z,43.65
2019-03-08T15:35:22.107Z,43.65
2019-03-08T15:37:53.993Z,43.83
2019-03-08T15:40:37.832Z,43.85
2019-03-08T15:43:13.163Z,43.85
2019-03-08T15:45:44.510Z,43.82
2019-03-08T15:48:16.328Z,43.70
2019-03-08T15:50:48.186Z,43.79
2019-03-08T15:53:20.077Z,44.67
2019-03-08T15:55:53.286Z,44.67
2019-03-08T15:58:25.066Z,44.48
2019-03-08T16:00:57.426Z,45.05
2019-03-08T16:03:30.213Z,44.29
2019-03-08T16:06:03.123Z,44.70
2019-03-08T16:08:39.355Z,44.64
2019-03-08T16:11:09.337Z,45.24
2019-03-08T16:13:41.039Z,45.24
2019-03-08T16:16:13.063Z,46.59
2019-03-08T16:18:47.969Z,46.35
2019-03-08T16:21:18.315Z,45.52
2019-03-08T16:23:51.696Z,45.52
2019-03-08T16:26:25.349Z,45.89
2019-03-08T16:28:56.627Z,45.89
2019-03-08T16:31:39.942Z,46.78
2019-03-08T16:34:11.535Z,47.54
2019-03-08T16:36:48.074Z,47.10
2019-03-08T16:39:38.472Z,47.54
2019-03-08T16:42:34.972Z,47.54
2019-03-08T16:45:28.222Z,46.22
2019-03-08T16:48:16.455Z,46.25
2019-03-08T16:51:12.182Z,47.62
2019-03-08T16:54:01.661Z,49.65
2019-03-08T16:56:55.039Z,49.65
2019-03-08T16:59:43.119Z,50.46
2019-03-08T17:02:32.528Z,50.46
2019-03-08T17:05:11.872Z,48.29
2019-03-08T17:08:13.933Z,48.17
2019-03-08T17:10:51.407Z,48.62
2019-03-08T17:13:41.625Z,48.44
2019-03-08T17:16:37.443Z,48.44
2019-03-08T17:19:42.886Z,49.19
2019-03-08T17:22:40.619Z,50.50
2019-03-08T17:25:37.919Z,49.45
2019-03-08T17:28:27.548Z,49.67
2019-03-08T17:31:16.537Z,49.22
2019-03-08T17:34:14.561Z,49.27
2019-03-08T17:36:52.785Z,49.27
2019-03-08T17:39:36.118Z,50.92
2019-03-08T17:42:33.185Z,50.94
2019-03-08T17:45:22.165Z,49.46
2019-03-08T17:48:25.376Z,49.46
2019-03-08T17:51:06.439Z,49.37
2019-03-08T17:54:00.100Z,50.20
2019-03-08T17:56:49.887Z,50.68
2019-03-08T17:59:42.128Z,50.43
2019-03-08T18:02:24.179Z,51.25
2019-03-08T18:05:13.291Z,51.42
2019-03-08T18:08:04.288Z,51.42
2019-03-08T18:10:49.091Z,51.63
2019-03-08T18:13:37.836Z,51.49
2019-03-08T18:16:20.692Z,51.49
2019-03-08T18:19:09.801Z,52.99
2019-03-08T18:21:59.638Z,52.87
2019-03-08T18:24:53.460Z,52.87
2019-03-08T18:27:42.409Z,52.70
2019-03-08T18:30:31.898Z,52.70
2019-03-08T18:33:15.770Z,52.33
2019-03-08T18:35:56.181Z,53.47
2019-03-08T18:38:52.613Z,52.42
2019-03-08T18:41:43.400Z,52.42
2019-03-08T18:44:32.497Z,53.43
2019-03-08T18:47:21.519Z,53.43
2019-03-08T18:50:20.949Z,53.06
2019-03-08T18:53:10.110Z,53.67
2019-03-08T18:56:10.038Z,53.67
2019-03-08T18:58:59.108Z,53.73
2019-03-08T19:01:41.491Z,53.49
2019-03-08T19:04:32.877Z,52.28
2019-03-08T19:07:26.697Z,52.65
2019-03-08T19:10:15.756Z,53.57
2019-03-08T19:13:15.892Z,53.63
2019-03-08T19:15:58.844Z,56.04
2019-03-08T19:18:44.406Z,56.04
2019-03-08T19:21:35.346Z,55.55
2019-03-08T19:24:32.599Z,56.63
2019-03-08T19:27:12.776Z,56.63
2019-03-08T19:30:01.856Z,55.13
2019-03-08T19:32:58.919Z,55.36
2019-03-08T19:35:45.009Z,55.36
2019-03-08T19:38:33.973Z,54.20
2019-03-08T19:41:33.793Z,55.11
2019-03-08T19:44:24.191Z,54.71
2019-03-08T19:47:26.954Z,54.31
2019-03-08T19:50:15.817Z,53.78
2019-03-08T19:53:06.127Z,54.60
2019-03-08T19:55:44.558Z,54.94
2019-03-08T19:58:26.644Z,55.66
2019-03-08T20:01:32.475Z,55.66
2019-03-08T20:04:21.742Z,55.53
2019-03-08T20:07:12.672Z,57.47
2019-03-08T20:09:54.581Z,59.01
2019-03-08T20:12:49.242Z,57.41
2019-03-08T20:15:36.078Z,56.98
2019-03-08T20:18:33.218Z,56.37
2019-03-08T20:21:17.421Z,56.39
2019-03-08T20:24:07.959Z,56.76
2019-03-08T20:27:08.069Z,56.76
2019-03-08T20:30:07.777Z,56.25
2019-03-08T20:32:48.171Z,55.98
2019-03-08T20:35:41.398Z,56.65
2019-03-08T20:38:38.867Z,56.79
2019-03-08T20:41:28.123Z,56.79
2019-03-08T20:44:04.340Z,58.01
2019-03-08T20:46:40.801Z,57.91
2019-03-08T20:49:12.147Z,59.05
2019-03-08T20:51:44.043Z,59.56
2019-03-08T20:54:15.458Z,59.56
2019-03-08T20:56:47.100Z,57.36
2019-03-08T20:59:18.688Z,57.43
2019-03-08T21:01:50.540Z,57.43
2019-03-08T21:04:22.274Z,57.61
2019-03-08T21:06:54.256Z,59.68
2019-03-08T21:09:29.071Z,59.68
2019-03-08T21:12:00.687Z,60.61
2019-03-08T21:14:32.235Z,61.71
2019-03-08T21:17:04.077Z,59.30
2019-03-08T21:19:36.183Z,59.30
2019-03-08T21:22:07.707Z,58.93
2019-03-08T21:24:39.670Z,58.74
2019-03-08T21:27:11.387Z,58.74
2019-03-08T21:29:43.145Z,59.65
2019-03-08T21:32:14.741Z,59.07
2019-03-08T21:34:46.349Z,58.83
2019-03-08T21:37:17.802Z,58.83
2019-03-08T21:39:49.497Z,59.92
2019-03-08T21:42:21.203Z,59.92
2019-03-08T21:44:52.670Z,59.82
2019-03-08T21:47:24.560Z,59.82
2019-03-08T21:49:56.055Z,60.07
2019-03-08T21:52:27.796Z,58.77
2019-03-08T21:54:59.823Z,57.73
2019-03-08T21:57:31.345Z,57.60
2019-03-08T22:00:03.150Z,57.89
2019-03-08T22:02:35.979Z,58.74
2019-03-08T22:05:07.633Z,58.74
2019-03-08T22:07:39.194Z,59.87
2019-03-08T22:10:18.215Z,61.42
2019-03-08T22:12:50.157Z,61.20
2019-03-08T22:15:21.887Z,62.34
2019-03-08T22:17:53.616Z,62.60
2019-03-08T22:20:25.198Z,62.60
2019-03-08T22:22:56.765Z,63.64
2019-03-08T22:25:29.117Z,62.55
2019-03-08T22:28:00.832Z,62.55
2019-03-08T22:30:32.798Z,61.79
2019-03-08T22:33:04.464Z,62.36
2019-03-08T22:35:36.107Z,60.90
2019-03-08T22:38:07.788Z,60.90
2019-03-08T22:40:39.367Z,60.89
2019-03-08T22:43:10.985Z,61.53
2019-03-08T22:45:42.825Z,61.53
2019-03-08T22:48:14.226Z,61.35
2019-03-08T22:50:45.817Z,61.35
2019-03-08T22:53:17.456Z,62.20
2019-03-08T22:55:49.373Z,62.20
2019-03-08T22:58:21.255Z,63.54
2019-03-08T23:01:03.764Z,63.54
2019-03-08T23:03:36.912Z,61.96
2019-03-08T23:06:08.729Z,61.96
2019-03-08T23:08:40.413Z,60.48
2019-03-08T23:11:12.822Z,60.93
2019-03-08T23:13:44.667Z,60.93
2019-03-08T23:16:16.317Z,60.16
2019-03-08T23:18:47.888Z,59.76
2019-03-08T23:21:19.577Z,59.76
2019-03-08T23:23:51.439Z,60.22
2019-03-08T23:26:22.962Z,60.09
2019-03-08T23:29:17.156Z,60.09
2019-03-08T23:31:54.128Z,60.43
2019-03-08T23:34:25.604Z,59.53
2019-03-08T23:36:57.395Z,59.66
2019-03-08T23:39:28.958Z,59.94
2019-03-08T23:42:00.691Z,59.15
2019-03-08T23:44:33.528Z,59.37
2019-03-08T23:47:05.366Z,59.37
2019-03-08T23:49:37.304Z,59.74
2019-03-08T23:52:08.768Z,60.05
2019-03-08T23:54:40.565Z,59.96
2019-03-08T23:57:12.231Z,59.71
2019-03-08T23:59:43.837Z,59.71
